CheckWX is a tool to help pilots better visualize weather data.  It is not intended as a substitute for an official pre-flight weather briefing.

07:45:51 UTC

4O4 METAR
Mc Curtain County Regional Airport
Idabel, Oklahoma, USA
Current

11 mins ago

K4O4 210735Z AUTO 09007KT 10SM CLR 00/M04 A3049 RMK AO2
Observed
Jan-21 @ 07:35 UTC
Wind
  • 090° at 7 KTS
Visibility
10 SM
Flight Rules
VFR
Cloud Levels
  • Clear skies
Temperature
C / 32°F
Dewpoint
-4°C / 25°F
Humidity
75%
Altimeter
30.49" Hg
Pressure
1032.52 hPa
Previous

31 mins ago

K4O4 210715Z AUTO 08006KT 10SM CLR 00/M03 A3050 RMK AO2
Observed
Jan-21 @ 07:15 UTC
Wind
  • 080° at 6 KTS
Visibility
10 SM
Flight Rules
VFR
Cloud Levels
  • Clear skies
Temperature
C / 32°F
Dewpoint
-3°C / 27°F
Humidity
80%
Altimeter
30.5" Hg
Pressure
1032.82 hPa
Previous

51 mins ago

K4O4 210655Z AUTO 08008KT 10SM CLR 00/M03 A3050 RMK AO2
Observed
Jan-21 @ 06:55 UTC
Wind
  • 080° at 8 KTS
Visibility
10 SM
Flight Rules
VFR
Cloud Levels
  • Clear skies
Temperature
C / 32°F
Dewpoint
-3°C / 27°F
Humidity
80%
Altimeter
30.5" Hg
Pressure
1032.82 hPa